createdAt,value
2023-04-11T00:00:29.325Z,2.00
2023-04-11T00:03:00.091Z,1.50
2023-04-11T00:05:28.072Z,1.40
2023-04-11T00:07:54.587Z,1.37
2023-04-11T00:10:21.117Z,1.70
2023-04-11T00:12:47.637Z,1.60
2023-04-11T00:15:16.171Z,1.80
2023-04-11T00:17:45.782Z,2.17
2023-04-11T00:20:12.982Z,1.93
2023-04-11T00:22:39.527Z,1.83
2023-04-11T00:25:07.097Z,1.33
2023-04-11T00:27:33.539Z,2.10
2023-04-11T00:30:00.747Z,1.73
2023-04-11T00:32:27.649Z,2.13
2023-04-11T00:34:54.093Z,4.13
2023-04-11T00:37:21.502Z,1.90
2023-04-11T00:39:50.487Z,1.70
2023-04-11T00:42:17.130Z,1.50
2023-04-11T00:44:44.790Z,1.43
2023-04-11T00:47:12.057Z,1.00
2023-04-11T00:49:39.713Z,1.60
2023-04-11T00:52:07.092Z,2.67
2023-04-11T00:54:33.693Z,1.70
2023-04-11T00:57:04.387Z,2.33
2023-04-11T00:59:32.486Z,1.30
2023-04-11T01:01:59.851Z,2.43
2023-04-11T01:04:26.784Z,1.23
2023-04-11T01:06:59.063Z,1.53
2023-04-11T01:09:27.433Z,1.53
2023-04-11T01:11:54.252Z,2.43
2023-04-11T01:14:22.106Z,2.17
2023-04-11T01:16:50.799Z,0.90
2023-04-11T01:19:22.151Z,2.17
2023-04-11T01:21:50.442Z,1.10
2023-04-11T01:24:17.623Z,1.07
2023-04-11T01:26:44.656Z,2.40
2023-04-11T01:29:11.747Z,1.30
2023-04-11T01:31:38.548Z,2.27
2023-04-11T01:34:05.532Z,2.27
2023-04-11T01:36:32.268Z,2.37
2023-04-11T01:38:59.333Z,2.63
2023-04-11T01:41:29.434Z,2.30
2023-04-11T01:43:56.722Z,1.83
2023-04-11T01:46:25.118Z,1.50
2023-04-11T01:48:54.702Z,1.87
2023-04-11T01:51:21.533Z,3.67
2023-04-11T01:53:48.120Z,2.40
2023-04-11T01:56:14.814Z,1.10
2023-04-11T01:58:41.337Z,1.03
2023-04-11T02:01:08.073Z,1.53
2023-04-11T02:03:34.868Z,2.40
2023-04-11T02:06:01.623Z,2.50
2023-04-11T02:08:29.319Z,2.27
2023-04-11T02:10:55.777Z,1.87
2023-04-11T02:13:22.208Z,2.43
2023-04-11T02:15:48.768Z,2.93
2023-04-11T02:18:15.265Z,2.67
2023-04-11T02:20:41.668Z,2.37
2023-04-11T02:23:08.196Z,2.70
2023-04-11T02:25:34.644Z,2.43
2023-04-11T02:28:01.211Z,1.67
2023-04-11T02:30:27.696Z,2.10
2023-04-11T02:32:54.261Z,2.73
2023-04-11T02:35:20.783Z,2.80
2023-04-11T02:37:47.193Z,2.07
2023-04-11T02:40:13.799Z,1.80
2023-04-11T02:42:43.035Z,3.03
2023-04-11T02:45:10.286Z,2.03
2023-04-11T02:47:36.861Z,1.70
2023-04-11T02:50:06.815Z,2.97
2023-04-11T02:52:42.099Z,2.60
2023-04-11T02:55:10.210Z,1.60
2023-04-11T02:57:36.964Z,1.60
2023-04-11T03:00:07.206Z,3.23
2023-04-11T03:02:43.868Z,4.00
2023-04-11T03:05:11.713Z,2.10
2023-04-11T03:07:40.515Z,3.10
2023-04-11T03:10:09.075Z,4.67
2023-04-11T03:12:35.610Z,2.83
2023-04-11T03:15:04.917Z,2.47
2023-04-11T03:17:31.960Z,3.07
2023-04-11T03:19:58.828Z,2.27
2023-04-11T03:22:25.981Z,1.43
2023-04-11T03:24:52.530Z,0.87
2023-04-11T03:27:21.668Z,0.70
2023-04-11T03:29:52.917Z,1.07
2023-04-11T03:32:26.901Z,1.00
2023-04-11T03:34:53.477Z,4.10
2023-04-11T03:37:21.681Z,1.83
2023-04-11T03:39:48.325Z,0.93
2023-04-11T03:42:16.090Z,2.73
2023-04-11T03:44:42.593Z,1.90
2023-04-11T03:47:09.093Z,2.37
2023-04-11T03:49:40.785Z,0.83
2023-04-11T03:52:09.690Z,2.30
2023-04-11T03:54:37.629Z,1.27
2023-04-11T03:57:06.084Z,2.57
2023-04-11T03:59:34.238Z,1.70
2023-04-11T04:02:07.582Z,1.17
2023-04-11T04:04:38.944Z,2.17
2023-04-11T04:07:18.100Z,2.20
2023-04-11T04:09:44.655Z,1.60
2023-04-11T04:12:11.604Z,2.70
2023-04-11T04:15:03.638Z,2.03
2023-04-11T04:17:30.670Z,1.83
2023-04-11T04:19:58.379Z,3.50
2023-04-11T04:22:26.648Z,2.43
2023-04-11T04:24:58.286Z,1.93
2023-04-11T04:27:30.207Z,1.93
2023-04-11T04:30:03.774Z,1.80
2023-04-11T04:32:54.883Z,2.57
2023-04-11T04:35:22.785Z,1.77
2023-04-11T04:37:49.916Z,2.33
2023-04-11T04:40:38.027Z,2.67
2023-04-11T04:43:09.041Z,2.57
2023-04-11T04:45:41.541Z,1.07
2023-04-11T04:48:08.516Z,4.50
2023-04-11T04:50:35.484Z,3.50
2023-04-11T04:53:01.884Z,1.90
2023-04-11T04:55:28.781Z,2.27
2023-04-11T04:57:55.647Z,3.13
2023-04-11T05:00:23.312Z,1.73
2023-04-11T05:02:54.645Z,2.27
2023-04-11T05:05:21.674Z,3.13
2023-04-11T05:07:48.391Z,3.17
2023-04-11T05:10:15.727Z,1.80
2023-04-11T05:12:43.823Z,4.50
2023-04-11T05:15:12.385Z,3.80
2023-04-11T05:17:40.580Z,5.40
2023-04-11T05:20:09.071Z,3.03
2023-04-11T05:22:37.935Z,4.80
2023-04-11T05:25:05.442Z,5.13
2023-04-11T05:27:32.346Z,5.53
2023-04-11T05:30:00.576Z,1.90
2023-04-11T05:32:28.237Z,2.53
2023-04-11T05:34:59.131Z,2.77
2023-04-11T05:37:46.182Z,2.90
2023-04-11T05:40:12.787Z,2.90
2023-04-11T05:42:39.295Z,4.77
2023-04-11T05:45:06.429Z,5.67
2023-04-11T05:47:32.971Z,5.80
2023-04-11T05:49:59.819Z,8.57
2023-04-11T05:52:27.187Z,6.67
2023-04-11T05:54:53.755Z,4.43
2023-04-11T05:57:20.915Z,3.27
2023-04-11T05:59:49.845Z,3.27
2023-04-11T06:02:16.804Z,5.27
2023-04-11T06:04:43.472Z,6.90
2023-04-11T06:07:10.167Z,6.13
2023-04-11T06:09:36.768Z,5.80
2023-04-11T06:12:03.621Z,6.20
2023-04-11T06:14:30.069Z,6.07
2023-04-11T06:16:56.591Z,4.57
2023-04-11T06:19:22.997Z,6.30
2023-04-11T06:21:49.552Z,6.60
2023-04-11T06:24:18.537Z,6.93
2023-04-11T06:26:46.573Z,7.27
2023-04-11T06:29:13.059Z,7.00
2023-04-11T06:31:39.834Z,3.13
2023-04-11T06:34:06.360Z,5.93
2023-04-11T06:36:33.046Z,7.23
2023-04-11T06:38:59.487Z,4.27
2023-04-11T06:41:25.890Z,5.93
2023-04-11T06:43:52.371Z,6.77
2023-04-11T06:46:18.924Z,4.00
2023-04-11T06:48:45.346Z,5.77
2023-04-11T06:51:11.914Z,5.10
2023-04-11T06:53:38.407Z,3.60
2023-04-11T06:56:05.571Z,4.23
2023-04-11T06:58:32.040Z,5.03
2023-04-11T07:00:58.760Z,5.85
2023-04-11T07:03:25.356Z,5.77
2023-04-11T07:05:52.356Z,4.40
2023-04-11T07:08:18.794Z,3.45
2023-04-11T07:10:45.238Z,6.75
2023-04-11T07:13:11.699Z,5.07
2023-04-11T07:15:38.150Z,3.92
2023-04-11T07:18:04.717Z,4.75
2023-04-11T07:20:32.973Z,5.45
2023-04-11T07:22:59.468Z,5.95
2023-04-11T07:25:27.146Z,5.07
2023-04-11T07:27:53.693Z,5.40
2023-04-11T07:30:20.270Z,3.65
2023-04-11T07:32:47.066Z,4.90
2023-04-11T07:35:14.242Z,4.57
2023-04-11T07:37:42.285Z,4.38
2023-04-11T07:40:14.026Z,3.53
2023-04-11T07:42:41.307Z,6.63
2023-04-11T07:45:08.492Z,6.32
2023-04-11T07:47:34.965Z,6.20
2023-04-11T07:50:01.943Z,4.13
2023-04-11T07:52:28.652Z,3.30
2023-04-11T07:54:55.814Z,6.75
2023-04-11T07:57:22.451Z,4.82
2023-04-11T07:59:48.894Z,4.68
2023-04-11T08:02:15.404Z,4.55
2023-04-11T08:04:42.196Z,7.18
2023-04-11T08:07:08.766Z,5.13
2023-04-11T08:09:35.778Z,6.47
2023-04-11T08:12:02.336Z,5.43
2023-04-11T08:14:28.826Z,5.13
2023-04-11T08:16:55.289Z,5.38
2023-04-11T08:19:21.941Z,3.85
2023-04-11T08:21:48.448Z,10.48
2023-04-11T08:24:14.945Z,5.53
2023-04-11T08:26:41.489Z,6.30
2023-04-11T08:29:11.335Z,7.95
2023-04-11T08:31:45.591Z,5.22
2023-04-11T08:34:12.825Z,6.65
2023-04-11T08:36:39.400Z,4.55
2023-04-11T08:39:06.674Z,9.43
2023-04-11T08:41:33.465Z,6.60
2023-04-11T08:44:00.579Z,6.40
2023-04-11T08:46:27.212Z,3.95
2023-04-11T08:48:53.788Z,5.65
2023-04-11T08:51:24.868Z,4.03
2023-04-11T08:53:53.923Z,5.85
2023-04-11T08:56:20.594Z,6.53
2023-04-11T08:58:47.996Z,5.72
2023-04-11T09:01:35.047Z,7.15
2023-04-11T09:04:05.366Z,6.22
2023-04-11T09:06:33.673Z,6.35
2023-04-11T09:09:01.857Z,3.78
2023-04-11T09:11:28.335Z,4.85
2023-04-11T09:14:09.318Z,4.65
2023-04-11T09:16:36.321Z,4.78
2023-04-11T09:19:03.071Z,5.97
2023-04-11T09:21:31.067Z,4.88
2023-04-11T09:24:17.947Z,5.57
2023-04-11T09:26:44.405Z,3.17
2023-04-11T09:29:11.038Z,3.97
2023-04-11T09:31:43.095Z,3.33
2023-04-11T09:34:09.851Z,5.50
2023-04-11T09:36:36.476Z,3.20
2023-04-11T09:39:17.182Z,4.53
2023-04-11T09:41:43.975Z,3.17
2023-04-11T09:44:10.543Z,6.18
2023-04-11T09:46:37.454Z,2.55
2023-04-11T09:49:04.374Z,2.58
2023-04-11T09:51:35.761Z,3.67
2023-04-11T09:54:04.648Z,3.92
2023-04-11T09:56:31.759Z,8.60
2023-04-11T09:59:00.131Z,3.65
2023-04-11T10:01:27.439Z,3.95
2023-04-11T10:03:56.151Z,6.70
2023-04-11T10:06:31.254Z,4.47
2023-04-11T10:09:10.841Z,4.25
2023-04-11T10:11:40.196Z,6.35
2023-04-11T10:14:06.666Z,3.88
2023-04-11T10:16:34.288Z,4.20
2023-04-11T10:19:01.105Z,3.60
2023-04-11T10:21:27.758Z,1.92
2023-04-11T10:24:17.766Z,3.33
2023-04-11T10:26:52.124Z,1.70
2023-04-11T10:29:33.834Z,3.35
2023-04-11T10:32:11.565Z,3.20
2023-04-11T10:35:01.481Z,2.42
2023-04-11T10:37:35.623Z,3.15
2023-04-11T10:40:02.006Z,4.35
2023-04-11T10:42:36.599Z,3.97
2023-04-11T10:45:40.468Z,3.80
2023-04-11T10:48:11.696Z,2.85
2023-04-11T10:50:44.449Z,7.05
2023-04-11T10:53:36.536Z,5.37
2023-04-11T10:56:03.258Z,4.50
2023-04-11T10:58:39.282Z,3.17
2023-04-11T11:01:21.290Z,4.17
2023-04-11T11:03:59.640Z,3.67
2023-04-11T11:06:26.526Z,4.03
2023-04-11T11:08:53.125Z,3.07
2023-04-11T11:11:19.773Z,3.93
2023-04-11T11:13:48.147Z,4.57
2023-04-11T11:16:23.149Z,2.33
2023-04-11T11:18:53.675Z,4.33
2023-04-11T11:21:27.668Z,1.80
2023-04-11T11:24:02.546Z,4.40
2023-04-11T11:26:56.221Z,7.55
2023-04-11T11:29:35.702Z,6.18
2023-04-11T11:32:05.522Z,12.40
2023-04-11T11:34:34.409Z,6.63
2023-04-11T11:37:06.793Z,14.40
2023-04-11T11:39:35.361Z,4.20
2023-04-11T11:42:02.365Z,3.90
2023-04-11T11:44:31.066Z,3.28
2023-04-11T11:47:17.354Z,3.65
2023-04-11T11:49:47.638Z,3.72
2023-04-11T11:52:31.759Z,4.88
2023-04-11T11:54:58.743Z,5.20
2023-04-11T11:57:25.918Z,5.63
2023-04-11T11:59:56.345Z,4.20
2023-04-11T12:02:27.374Z,4.40
2023-04-11T12:04:59.933Z,4.93
2023-04-11T12:07:27.118Z,2.97
2023-04-11T12:10:19.790Z,4.30
2023-04-11T12:12:53.105Z,3.50
2023-04-11T12:15:23.208Z,5.57
2023-04-11T12:17:54.224Z,4.13
2023-04-11T12:20:25.063Z,2.92
2023-04-11T12:22:54.136Z,3.50
2023-04-11T12:25:22.221Z,2.67
2023-04-11T12:27:48.941Z,3.42
2023-04-11T12:30:15.569Z,4.93
2023-04-11T12:32:42.514Z,4.38
2023-04-11T12:35:10.499Z,4.70
2023-04-11T12:37:37.710Z,4.15
2023-04-11T12:40:12.066Z,2.42
2023-04-11T12:42:53.254Z,2.88
2023-04-11T12:45:23.281Z,3.78
2023-04-11T12:47:49.832Z,2.88
2023-04-11T12:50:16.462Z,5.97
2023-04-11T12:52:43.205Z,4.38
2023-04-11T12:55:10.006Z,2.83
2023-04-11T12:57:36.746Z,5.32
2023-04-11T13:00:07.685Z,4.10
2023-04-11T13:02:42.178Z,3.20
2023-04-11T13:05:11.898Z,5.93
2023-04-11T13:07:39.133Z,4.82
2023-04-11T13:10:09.195Z,6.00
2023-04-11T13:12:44.458Z,6.03
2023-04-11T13:15:13.354Z,4.90
2023-04-11T13:17:40.211Z,2.50
2023-04-11T13:20:10.298Z,2.28
2023-04-11T13:22:38.068Z,2.38
2023-04-11T13:25:04.986Z,3.53
2023-04-11T13:27:32.018Z,3.05
2023-04-11T13:29:58.492Z,4.03
2023-04-11T13:32:25.153Z,3.72
2023-04-11T13:34:51.605Z,3.90
2023-04-11T13:37:18.155Z,4.32
2023-04-11T13:39:44.600Z,3.08
2023-04-11T13:42:11.690Z,5.90
2023-04-11T13:44:38.134Z,3.50
2023-04-11T13:47:04.775Z,5.03
2023-04-11T13:49:31.199Z,5.47
2023-04-11T13:51:57.805Z,5.68
2023-04-11T13:54:24.363Z,5.90
2023-04-11T13:56:51.022Z,3.47
2023-04-11T13:59:17.449Z,2.75
2023-04-11T14:01:44.201Z,4.30
2023-04-11T14:04:11.775Z,7.28
2023-04-11T14:06:39.374Z,7.25
2023-04-11T14:09:05.910Z,5.13
2023-04-11T14:11:32.483Z,5.00
2023-04-11T14:13:59.030Z,3.80
2023-04-11T14:16:25.656Z,3.42
2023-04-11T14:18:52.150Z,3.13
2023-04-11T14:21:18.885Z,2.90
2023-04-11T14:23:45.369Z,4.30
2023-04-11T14:26:11.817Z,2.97
2023-04-11T14:28:38.363Z,4.43
2023-04-11T14:31:05.133Z,3.92
2023-04-11T14:33:32.192Z,3.60
2023-04-11T14:35:58.812Z,3.85
2023-04-11T14:38:25.337Z,4.50
2023-04-11T14:40:51.858Z,4.20
2023-04-11T14:43:18.316Z,7.90
2023-04-11T14:45:44.774Z,8.57
2023-04-11T14:48:11.701Z,6.03
2023-04-11T14:50:38.157Z,4.00
2023-04-11T14:53:04.579Z,3.85
2023-04-11T14:55:31.118Z,4.45
2023-04-11T14:57:57.573Z,3.95
2023-04-11T15:00:24.952Z,2.90
2023-04-11T15:02:53.882Z,2.45
2023-04-11T15:05:21.668Z,2.95
2023-04-11T15:07:49.898Z,2.83
2023-04-11T15:10:18.785Z,4.00
2023-04-11T15:12:45.775Z,3.03
2023-04-11T15:15:12.785Z,2.33
2023-04-11T15:17:45.586Z,3.00
2023-04-11T15:20:14.279Z,3.75
2023-04-11T15:22:49.872Z,4.05
2023-04-11T15:25:16.700Z,4.25
2023-04-11T15:27:43.792Z,3.42
2023-04-11T15:30:11.259Z,3.70
2023-04-11T15:32:43.372Z,3.92
2023-04-11T15:35:10.627Z,3.08
2023-04-11T15:37:37.208Z,3.72
2023-04-11T15:40:06.554Z,2.35
2023-04-11T15:42:35.318Z,4.28
2023-04-11T15:45:02.559Z,1.95
2023-04-11T15:51:35.594Z,2.15
2023-04-11T15:54:02.084Z,5.72
2023-04-11T15:56:28.587Z,5.47
2023-04-11T15:58:55.462Z,5.55
2023-04-11T16:01:23.353Z,6.78
2023-04-11T16:03:50.260Z,4.00
2023-04-11T16:06:18.554Z,6.32
2023-04-11T16:08:45.423Z,3.15
2023-04-11T16:11:11.941Z,7.30
2023-04-11T16:13:38.393Z,6.13
2023-04-11T16:16:05.324Z,5.55
2023-04-11T16:18:31.777Z,5.53
2023-04-11T16:20:58.232Z,3.92
2023-04-11T16:23:24.698Z,6.65
2023-04-11T16:25:51.143Z,5.40
2023-04-11T16:28:17.574Z,5.50
2023-04-11T16:30:44.011Z,4.35
2023-04-11T16:33:10.553Z,3.53
2023-04-11T16:35:37.022Z,8.13
2023-04-11T16:38:04.229Z,5.70
2023-04-11T16:40:31.732Z,5.60
2023-04-11T16:42:58.151Z,3.45
2023-04-11T16:45:24.747Z,7.03
2023-04-11T16:47:51.187Z,6.05
2023-04-11T16:50:17.970Z,9.50
2023-04-11T16:52:44.460Z,6.43
2023-04-11T16:55:11.106Z,3.63
2023-04-11T16:57:37.566Z,3.83
2023-04-11T17:00:10.054Z,3.92
2023-04-11T17:02:36.542Z,5.00
2023-04-11T17:05:04.334Z,5.18
2023-04-11T17:07:31.322Z,4.78
2023-04-11T17:09:57.875Z,6.83
2023-04-11T17:12:24.304Z,7.07
2023-04-11T17:14:52.481Z,5.03
2023-04-11T17:17:20.557Z,4.60
2023-04-11T17:19:47.028Z,8.00
2023-04-11T17:22:13.488Z,5.47
2023-04-11T17:24:40.567Z,5.38
2023-04-11T17:27:06.993Z,4.22
2023-04-11T17:29:33.445Z,2.80
2023-04-11T17:31:59.858Z,5.90
2023-04-11T17:34:26.429Z,6.13
2023-04-11T17:36:52.831Z,4.03
2023-04-11T17:39:19.561Z,5.93
2023-04-11T17:41:46.803Z,5.47
2023-04-11T17:44:13.665Z,5.53
2023-04-11T17:46:40.138Z,5.83
2023-04-11T17:49:06.632Z,6.95
2023-04-11T17:51:33.106Z,5.55
2023-04-11T17:53:59.740Z,4.87
2023-04-11T17:56:26.970Z,8.82
2023-04-11T17:58:53.581Z,5.07
2023-04-11T18:01:20.666Z,5.38
2023-04-11T18:03:47.411Z,4.93
2023-04-11T18:06:13.978Z,3.25
2023-04-11T18:08:49.660Z,6.50
2023-04-11T18:11:16.662Z,5.13
2023-04-11T18:13:43.767Z,8.40
2023-04-11T18:16:10.825Z,9.33
2023-04-11T18:18:37.442Z,7.97
2023-04-11T18:21:06.646Z,14.37
2023-04-11T18:23:34.010Z,10.30
2023-04-11T18:26:00.502Z,23.23
2023-04-11T18:28:26.924Z,14.37
2023-04-11T18:30:53.453Z,8.03
2023-04-11T18:33:20.946Z,10.60
2023-04-11T18:35:47.878Z,13.23
2023-04-11T18:38:14.759Z,4.47
2023-04-11T18:40:41.265Z,10.87
2023-04-11T18:43:08.205Z,7.37
2023-04-11T18:45:35.335Z,4.13
2023-04-11T18:48:02.188Z,3.93
2023-04-11T18:50:30.612Z,6.07
2023-04-11T18:53:01.342Z,4.33
2023-04-11T18:55:31.355Z,5.90
2023-04-11T18:57:59.990Z,8.43
2023-04-11T19:00:28.613Z,6.00
2023-04-11T19:02:55.340Z,8.77
2023-04-11T19:05:25.082Z,5.57
2023-04-11T19:07:52.019Z,5.30
2023-04-11T19:10:18.585Z,6.90
2023-04-11T19:12:45.171Z,5.97
2023-04-11T19:15:12.212Z,3.97
2023-04-11T19:17:38.841Z,7.67
2023-04-11T19:20:12.919Z,5.10
2023-04-11T19:22:40.908Z,5.47
2023-04-11T19:25:10.501Z,5.03
2023-04-11T19:27:40.035Z,4.97
2023-04-11T19:30:08.464Z,6.67
2023-04-11T19:32:38.369Z,4.47
2023-04-11T19:35:08.650Z,6.47
2023-04-11T19:37:36.269Z,5.43
2023-04-11T19:40:16.633Z,6.23
2023-04-11T19:42:44.309Z,4.97
2023-04-11T19:45:11.435Z,2.63
2023-04-11T19:47:39.744Z,5.10
2023-04-11T19:50:09.231Z,6.93
2023-04-11T19:52:35.669Z,6.40
2023-04-11T19:55:02.238Z,7.03
2023-04-11T19:57:29.053Z,4.30
2023-04-11T19:59:55.629Z,4.53
2023-04-11T20:02:22.225Z,4.93
2023-04-11T20:04:49.443Z,5.87
2023-04-11T20:07:16.344Z,6.57
2023-04-11T20:09:42.887Z,5.27
2023-04-11T20:12:09.456Z,6.00
2023-04-11T20:14:37.860Z,9.03
2023-04-11T20:17:05.562Z,5.67
2023-04-11T20:19:33.148Z,4.73
2023-04-11T20:22:00.768Z,5.27
2023-04-11T20:24:27.727Z,6.20
2023-04-11T20:26:54.327Z,3.10
2023-04-11T20:29:24.581Z,4.80
2023-04-11T20:31:51.008Z,3.77
2023-04-11T20:34:17.430Z,7.10
2023-04-11T20:36:44.529Z,5.00
2023-04-11T20:39:10.990Z,2.80
2023-04-11T20:41:40.242Z,5.97
2023-04-11T20:44:06.813Z,3.13
2023-04-11T20:46:33.501Z,4.57
2023-04-11T20:48:59.987Z,4.63
2023-04-11T20:51:26.604Z,6.40
2023-04-11T20:53:53.081Z,8.20
2023-04-11T20:56:19.524Z,7.70
2023-04-11T20:58:46.496Z,10.90
2023-04-11T21:01:13.428Z,8.30
2023-04-11T21:03:42.429Z,5.47
2023-04-11T21:06:10.207Z,8.27
2023-04-11T21:08:37.335Z,7.30
2023-04-11T21:11:05.597Z,7.97
2023-04-11T21:13:32.177Z,6.10
2023-04-11T21:15:58.806Z,4.40
2023-04-11T21:18:25.472Z,7.10
2023-04-11T21:20:51.870Z,5.63
2023-04-11T21:23:18.504Z,4.40
2023-04-11T21:25:44.881Z,3.43
2023-04-11T21:28:11.331Z,4.63
2023-04-11T21:30:39.345Z,3.80
2023-04-11T21:33:05.930Z,4.57
2023-04-11T21:35:32.449Z,5.17
2023-04-11T21:37:58.857Z,6.80
2023-04-11T21:40:25.336Z,3.90
2023-04-11T21:42:51.849Z,5.67
2023-04-11T21:45:18.388Z,5.57
2023-04-11T21:47:44.913Z,3.73
2023-04-11T21:50:11.556Z,4.60
2023-04-11T21:52:38.098Z,1.83
2023-04-11T21:55:07.229Z,5.30
2023-04-11T21:57:35.690Z,5.03
2023-04-11T22:00:02.211Z,4.40
2023-04-11T22:02:38.867Z,4.43
2023-04-11T22:05:08.729Z,5.30
2023-04-11T22:07:46.113Z,6.60
2023-04-11T22:10:13.014Z,4.07
2023-04-11T22:12:40.538Z,5.80
2023-04-11T22:15:07.831Z,4.63
2023-04-11T22:17:34.484Z,4.80
2023-04-11T22:20:00.955Z,5.93
2023-04-11T22:22:30.430Z,5.03
2023-04-11T22:24:59.866Z,3.83
2023-04-11T22:27:27.202Z,5.50
2023-04-11T22:29:56.062Z,5.70
2023-04-11T22:32:23.900Z,6.60
2023-04-11T22:34:50.482Z,5.27
2023-04-11T22:37:17.123Z,7.77
2023-04-11T22:39:43.648Z,6.47
2023-04-11T22:42:11.582Z,5.33
2023-04-11T22:44:38.256Z,8.53
2023-04-11T22:47:07.038Z,5.10
2023-04-11T22:49:42.920Z,4.30
2023-04-11T22:52:14.988Z,4.10
2023-04-11T22:54:42.573Z,3.60
2023-04-11T22:57:09.372Z,5.83
2023-04-11T22:59:36.720Z,3.57
2023-04-11T23:02:03.420Z,4.57
2023-04-11T23:04:31.421Z,4.63
2023-04-11T23:06:58.117Z,4.00
2023-04-11T23:09:24.542Z,4.90
2023-04-11T23:11:52.223Z,3.90
2023-04-11T23:14:20.807Z,4.90
2023-04-11T23:16:47.253Z,6.20
2023-04-11T23:19:13.948Z,3.60
2023-04-11T23:21:41.058Z,4.37
2023-04-11T23:24:07.608Z,3.77
2023-04-11T23:26:34.037Z,2.33
2023-04-11T23:29:02.216Z,3.87
2023-04-11T23:31:29.197Z,5.07
2023-04-11T23:33:56.962Z,4.63
2023-04-11T23:36:23.711Z,3.63
2023-04-11T23:38:50.187Z,6.03
2023-04-11T23:41:16.633Z,4.23
2023-04-11T23:43:43.109Z,3.57
2023-04-11T23:46:17.872Z,5.00
2023-04-11T23:48:44.823Z,5.77
2023-04-11T23:51:11.306Z,2.40
2023-04-11T23:53:37.926Z,4.53
2023-04-11T23:56:04.651Z,6.30
2023-04-11T23:58:31.182Z,5.53
